Meath Environmental Platform

Observations for Trim Patrick St

Time AQI Temp °C Hum % Pres Pa CO μg/m³ H₂S μg/m³ NO μg/m³ NO₂ μg/m³ O₃ μg/m³ SO₂ μg/m³ PM1 μg/m³ PM2.5 μg/m³ PM10 μg/m³
Friday 7 August 2026
23:08 3 16.8 63 74,638 0.02 10.98 1.21 32.38 31.04 1.36 3.71 8.53 9.38
23:07 3 16.8 63 74,603 0.01 11.27 1.27 31.11 34.25 1.53 3.71 7.79 8.57
23:06 3 16.8 63 74,573 0 11.66 1.17 37.83 25.52 1.44 2.86 7.82 8.6
23:05 3 16.9 63 74,538 0 11.01 1.3 34.81 27.46 1.05 2.86 7.06 7.76
23:04 3 16.9 63 74,508 0 10.88 1.41 33.53 29.23 1.39 2 7.07 7.77
23:03 3 16.9 63 74,481 0 11.03 1.65 32.25 31.2 1.39 3.71 7.8 8.58
23:02 3 16.9 63 74,451 0 13.75 1.8 34.8 37.63 1.74 2 6.33 6.96
23:01 3 17 63 74,420 0 11.77 1.77 36.8 33.07 1.11 3.71 7.81 8.6
23:00 3 17 63 74,390 0 11.82 1.95 35.09 32.47 1.05 3.71 7.09 7.79
22:59 3 17.1 63 74,355 0 13.34 1.88 41.74 32.55 1.58 2.86 7.09 7.8
22:58 3 17.1 62 74,330 0 11.32 1.41 39.09 24.21 1.31 2 5.68 6.24
22:57 3 17.1 62 74,310 0 11.87 1.23 35.32 28.94 1.56 2 5.65 6.22
22:56 3 17.1 62 74,284 0 12.68 1.2 36.17 29.99 1.85 3.71 7.86 8.65
22:55 3 17.2 62 74,263 0 12.76 1.28 37.35 29.57 1.96 2.86 6.39 7.03
22:54 3 17.2 62 74,241 0 12.68 1.3 37.32 31.6 1.96 3.71 7.88 8.67
22:53 3 17.2 62 74,218 0 12.03 1.53 34.76 31.72 1.52 2 6.41 7.05
22:51 3 17.3 62 74,178 0.01 13.42 2.05 41.01 27.84 1.82 2.86 6.41 7.05
22:50 3 17.3 62 74,155 0.08 13.55 1.67 36.33 34.25 2.38 2 7.16 7.88
22:49 3 17.4 62 74,131 0 12.66 1.23 40.46 26.3 1.79 2.86 7.17 7.88
22:47 3 17.4 61 74,064 0 11.9 1.12 37.46 31.47 1.64 2.86 7.18 7.9